Main page
METAR-TAF:

METAR-TAF

Airports :

Leeds Bradford Airport

Leeds, England

latitude: 53-52N, longitude: 001-39W, elevation: 208 m

Current weather observation

The report was made 25 minutes ago, at 08:50 UTC
Wind 3 kt from variable directions
Temperature 6°C
Humidity 87%
Pressure 1032 hPa
Visibility 10 km or more
Few clouds at a height of 2000 ft
Scattered clouds at a height of 3000 ft

METAR: EGNM 260850Z VRB03KT 9999 FEW020 SCT030 06/04 Q1032

Time: 09:15 (09:15 UTC)

Forecast

The report was made 1 hour and 7 minutes ago, at 08:08 UTC
Forecast valid from 26 at 08 UTC to 27 at 06 UTC
Wind 9 kt from the West/Northwest
Visibility 10 km or more
Few clouds at a height of 1800 ft
Scattered clouds at a height of 3000 ft
Probability 30%
from 27 at 03 UTC to 27 at 06 UTC
Broken clouds at a height of 1200 ft

TAF: EGNM 260808Z 2608/2706 29009KT 9999 FEW018 SCT030 PROB30 2703/2706 BKN012

Weather observations and forecasts of more than 4000 airports (METAR and TAF reports).

The available stations are represented by yellow and red dots on the map.

Hover mouse over dot to see the name of the station.

Then click to see weather observations and forecasts.

To change the map : click on the green buttons with a black cross to zoom in, on the green button with a dash to zoom out, or on the green arrows for adjacent maps.


METAR-TAF: